createdAt,value
2019-04-26T00:01:18.936Z,57.70
2019-04-26T00:03:31.077Z,57.60
2019-04-26T00:05:36.514Z,57.80
2019-04-26T00:07:42.469Z,57.90
2019-04-26T00:09:47.158Z,57.90
2019-04-26T00:11:53.625Z,58.00
2019-04-26T00:14:16.478Z,58.00
2019-04-26T00:16:22.882Z,57.90
2019-04-26T00:18:27.686Z,57.80
2019-04-26T00:20:32.406Z,58.00
2019-04-26T00:22:40.920Z,57.90
2019-04-26T00:24:45.706Z,57.90
2019-04-26T00:26:50.497Z,57.90
2019-04-26T00:28:55.254Z,58.70
2019-04-26T00:31:00.031Z,58.20
2019-04-26T00:33:04.720Z,58.10
2019-04-26T00:35:09.487Z,58.20
2019-04-26T00:37:14.291Z,58.20
2019-04-26T00:39:20.251Z,58.30
2019-04-26T00:41:25.286Z,58.30
2019-04-26T00:43:30.166Z,58.30
2019-04-26T00:45:34.889Z,58.40
2019-04-26T00:47:39.667Z,58.30
2019-04-26T00:49:44.378Z,58.30
2019-04-26T00:51:49.083Z,58.40
2019-04-26T00:53:53.950Z,58.40
2019-04-26T00:55:59.246Z,58.40
2019-04-26T00:58:03.980Z,58.20
2019-04-26T01:00:10.958Z,58.20
2019-04-26T01:02:20.898Z,58.20
2019-04-26T01:04:25.613Z,58.30
2019-04-26T01:06:31.988Z,58.20
2019-04-26T01:08:36.759Z,58.20
2019-04-26T01:10:41.456Z,58.20
2019-04-26T01:12:46.323Z,58.20
2019-04-26T01:14:51.019Z,58.20
2019-04-26T01:16:55.776Z,58.10
2019-04-26T01:19:00.500Z,57.90
2019-04-26T01:21:05.712Z,58.10
2019-04-26T01:23:11.139Z,58.10
2019-04-26T01:25:34.129Z,58.00
2019-04-26T01:27:38.885Z,58.00
2019-04-26T01:29:43.615Z,57.90
2019-04-26T01:32:09.871Z,58.00
2019-04-26T01:34:14.769Z,58.30
2019-04-26T01:36:20.482Z,58.30
2019-04-26T01:38:25.714Z,58.30
2019-04-26T01:40:32.425Z,58.30
2019-04-26T01:42:42.052Z,58.30
2019-04-26T01:45:01.696Z,58.20
2019-04-26T01:47:06.452Z,58.20
2019-04-26T01:49:11.735Z,58.20
2019-04-26T01:51:22.831Z,58.30
2019-04-26T01:53:28.792Z,58.30
2019-04-26T01:55:33.861Z,58.20
2019-04-26T01:57:38.545Z,58.30
2019-04-26T01:59:46.609Z,58.40
2019-04-26T02:01:55.937Z,58.60
2019-04-26T02:04:01.173Z,58.60
2019-04-26T02:06:05.871Z,58.70
2019-04-26T02:08:10.594Z,58.70
2019-04-26T02:10:19.990Z,58.60
2019-04-26T02:12:24.887Z,58.70
2019-04-26T02:14:29.833Z,58.60
2019-04-26T02:16:34.525Z,58.70
2019-04-26T02:18:39.216Z,58.70
2019-04-26T02:20:59.702Z,58.80
2019-04-26T02:23:18.317Z,59.00
2019-04-26T02:25:24.549Z,58.80
2019-04-26T02:27:30.645Z,58.60
2019-04-26T02:29:35.347Z,58.60
2019-04-26T02:31:40.530Z,58.70
2019-04-26T02:33:45.360Z,58.70
2019-04-26T02:35:50.097Z,58.80
2019-04-26T02:37:54.866Z,58.90
2019-04-26T02:39:59.643Z,59.00
2019-04-26T02:42:05.314Z,59.00
2019-04-26T02:44:11.545Z,59.00
2019-04-26T02:46:17.875Z,59.10
2019-04-26T02:48:32.646Z,59.10
2019-04-26T02:50:39.669Z,59.00
2019-04-26T02:52:56.693Z,59.00
2019-04-26T02:55:18.582Z,59.00
2019-04-26T02:57:36.473Z,58.90
2019-04-26T02:59:42.821Z,59.00
2019-04-26T03:01:48.332Z,59.00
2019-04-26T03:03:53.761Z,59.10
2019-04-26T03:05:58.698Z,59.20
2019-04-26T03:08:04.858Z,59.40
2019-04-26T03:10:09.563Z,59.10
2019-04-26T03:12:15.817Z,59.10
2019-04-26T03:14:22.185Z,59.10
2019-04-26T03:16:35.172Z,59.50
2019-04-26T03:18:53.168Z,59.00
2019-04-26T03:21:04.116Z,59.10
2019-04-26T03:23:24.008Z,59.10
2019-04-26T03:25:48.518Z,59.10
2019-04-26T03:27:59.364Z,59.10
2019-04-26T03:30:19.322Z,59.20
2019-04-26T03:32:40.447Z,59.10
2019-04-26T03:35:02.046Z,59.00
2019-04-26T03:37:29.982Z,59.20
2019-04-26T03:39:44.383Z,59.10
2019-04-26T03:42:11.940Z,58.90
2019-04-26T03:44:22.783Z,58.90
2019-04-26T03:46:33.553Z,58.70
2019-04-26T03:48:51.461Z,58.70
2019-04-26T03:51:22.294Z,58.90
2019-04-26T03:53:30.336Z,58.90
2019-04-26T03:55:41.550Z,58.70
2019-04-26T03:57:56.865Z,59.00
2019-04-26T04:00:19.985Z,59.00
2019-04-26T04:02:42.830Z,59.00
2019-04-26T04:04:52.721Z,59.00
2019-04-26T04:07:04.258Z,59.30
2019-04-26T04:09:08.866Z,59.30
2019-04-26T04:11:16.931Z,59.50
2019-04-26T04:13:49.204Z,59.40
2019-04-26T04:15:51.502Z,59.50
2019-04-26T04:18:03.692Z,59.50
2019-04-26T04:20:13.423Z,59.50
2019-04-26T04:22:19.105Z,59.50
2019-04-26T04:24:32.844Z,59.60
2019-04-26T04:26:57.380Z,59.60
2019-04-26T04:29:42.694Z,59.60
2019-04-26T04:31:46.258Z,59.60
2019-04-26T04:34:06.385Z,59.50
2019-04-26T04:36:14.454Z,59.50
2019-04-26T04:38:40.871Z,59.50
2019-04-26T04:41:08.489Z,60.30
2019-04-26T04:43:20.700Z,59.60
2019-04-26T04:46:04.942Z,59.60
2019-04-26T04:48:37.215Z,59.50
2019-04-26T04:50:47.567Z,59.50
2019-04-26T04:53:14.444Z,59.40
2019-04-26T04:55:52.278Z,59.40
2019-04-26T04:58:06.108Z,59.30
2019-04-26T05:00:36.412Z,59.20
2019-04-26T05:03:00.258Z,59.40
2019-04-26T05:05:26.791Z,59.60
2019-04-26T05:07:37.742Z,59.60
2019-04-26T05:09:51.784Z,59.40
2019-04-26T05:11:59.776Z,59.50
2019-04-26T05:14:19.827Z,59.50
2019-04-26T05:16:50.696Z,60.40
2019-04-26T05:19:26.628Z,59.60
2019-04-26T05:21:34.574Z,60.30
2019-04-26T05:24:02.482Z,59.50
2019-04-26T05:26:26.349Z,59.70
2019-04-26T05:29:05.722Z,59.70
2019-04-26T05:31:27.456Z,59.60
2019-04-26T05:33:47.746Z,59.60
2019-04-26T05:36:10.681Z,59.70
2019-04-26T05:38:39.962Z,59.70
2019-04-26T05:40:57.870Z,59.90
2019-04-26T05:43:18.881Z,59.80
2019-04-26T05:45:37.470Z,59.80
2019-04-26T05:48:08.350Z,59.90
2019-04-26T05:50:39.791Z,59.80
2019-04-26T05:52:53.052Z,59.90
2019-04-26T05:55:14.123Z,59.90
2019-04-26T05:57:35.938Z,59.90
2019-04-26T05:59:53.341Z,59.80
2019-04-26T06:02:35.162Z,59.70
2019-04-26T06:04:57.282Z,59.60
2019-04-26T06:07:20.896Z,59.70
2019-04-26T06:09:30.566Z,59.70
2019-04-26T06:11:46.007Z,59.70
2019-04-26T06:14:16.720Z,59.90
2019-04-26T06:17:01.367Z,60.00
2019-04-26T06:19:42.730Z,60.00
2019-04-26T06:21:53.789Z,59.90
2019-04-26T06:24:05.723Z,60.00
2019-04-26T06:26:47.158Z,60.10
2019-04-26T06:29:07.111Z,60.20
2019-04-26T06:31:16.963Z,60.00
2019-04-26T06:33:33.483Z,60.00
2019-04-26T06:35:40.975Z,60.20
2019-04-26T06:37:50.653Z,60.20
2019-04-26T06:40:04.498Z,60.40
2019-04-26T06:42:30.684Z,60.40
2019-04-26T06:44:51.981Z,60.40
2019-04-26T06:47:31.836Z,60.50
2019-04-26T06:52:37.959Z,60.20
2019-04-26T06:55:20.743Z,60.10
2019-04-26T06:57:52.571Z,60.20
2019-04-26T07:00:10.811Z,60.50
2019-04-26T07:02:18.854Z,60.50
2019-04-26T07:04:41.771Z,60.50
2019-04-26T07:07:07.421Z,60.60
2019-04-26T07:09:12.374Z,60.80
2019-04-26T07:11:52.357Z,60.70
2019-04-26T07:14:26.276Z,61.00
2019-04-26T07:16:37.185Z,60.90
2019-04-26T07:18:47.933Z,61.50
2019-04-26T07:24:01.200Z,61.80
2019-04-26T07:26:16.127Z,61.90
2019-04-26T07:28:26.860Z,61.80
2019-04-26T07:30:51.440Z,61.70
2019-04-26T07:33:12.637Z,61.90
2019-04-26T07:35:38.645Z,62.30
2019-04-26T07:38:03.115Z,62.70
2019-04-26T07:40:30.625Z,63.10
2019-04-26T07:42:58.323Z,63.20
2019-04-26T07:45:16.853Z,62.80
2019-04-26T07:47:34.095Z,62.20
2019-04-26T07:50:07.747Z,61.90
2019-04-26T07:52:18.863Z,61.10
2019-04-26T07:54:38.871Z,60.70
2019-04-26T07:56:58.913Z,60.30
2019-04-26T07:59:41.756Z,59.80
2019-04-26T08:02:16.389Z,59.70
2019-04-26T08:04:29.602Z,59.50
2019-04-26T08:06:54.973Z,59.40
2019-04-26T08:09:08.277Z,59.40
2019-04-26T08:11:23.734Z,59.50
2019-04-26T08:13:28.561Z,59.50
2019-04-26T08:15:51.132Z,59.50
2019-04-26T08:17:57.565Z,59.50
2019-04-26T08:20:12.596Z,59.40
2019-04-26T08:22:21.825Z,59.60
2019-04-26T08:24:28.200Z,59.60
2019-04-26T08:26:33.685Z,59.80
2019-04-26T08:28:38.445Z,59.90
2019-04-26T08:30:46.278Z,59.90
2019-04-26T08:32:55.364Z,60.20
2019-04-26T08:35:08.162Z,60.40
2019-04-26T08:37:14.775Z,60.40
2019-04-26T08:39:24.608Z,60.40
2019-04-26T08:41:28.123Z,60.40
2019-04-26T08:43:51.178Z,60.60
2019-04-26T08:46:03.118Z,60.70
2019-04-26T08:48:15.206Z,60.70
2019-04-26T08:50:22.238Z,60.50
2019-04-26T08:52:29.025Z,60.60
2019-04-26T08:54:35.973Z,60.60
2019-04-26T08:56:49.695Z,60.50
2019-04-26T08:58:57.714Z,60.80
2019-04-26T09:01:10.176Z,60.60
2019-04-26T09:03:19.072Z,60.70
2019-04-26T09:05:36.522Z,60.80
2019-04-26T09:07:44.557Z,61.20
2019-04-26T09:09:57.197Z,61.10
2019-04-26T09:11:59.704Z,60.80
2019-04-26T09:14:02.364Z,60.70
2019-04-26T09:16:11.874Z,60.30
2019-04-26T09:18:16.676Z,60.10
2019-04-26T09:20:28.744Z,60.10
2019-04-26T09:22:44.569Z,60.00
2019-04-26T09:25:02.997Z,60.00
2019-04-26T09:27:10.721Z,59.80
2019-04-26T09:29:17.167Z,59.80
2019-04-26T09:31:35.538Z,59.70
2019-04-26T09:33:43.478Z,59.70
2019-04-26T09:35:48.232Z,59.40
2019-04-26T09:37:53.006Z,59.20
2019-04-26T09:40:09.657Z,59.30
2019-04-26T09:42:18.819Z,59.20
2019-04-26T09:44:42.939Z,59.40
2019-04-26T09:46:52.738Z,59.30
2019-04-26T09:49:03.053Z,58.90
2019-04-26T09:51:08.343Z,58.90
2019-04-26T09:53:13.254Z,59.10
2019-04-26T09:55:18.259Z,59.30
2019-04-26T09:57:23.029Z,59.10
2019-04-26T09:59:27.870Z,58.70
2019-04-26T10:01:33.461Z,58.90
2019-04-26T10:03:38.238Z,58.90
2019-04-26T10:05:44.674Z,59.70
2019-04-26T10:07:51.110Z,59.10
2019-04-26T10:09:57.147Z,59.00
2019-04-26T10:12:03.856Z,59.00
2019-04-26T10:14:10.434Z,58.80
2019-04-26T10:16:23.014Z,58.90
2019-04-26T10:18:32.689Z,59.40
2019-04-26T10:20:41.540Z,58.60
2019-04-26T10:22:50.548Z,58.30
2019-04-26T10:25:02.287Z,58.30
2019-04-26T10:27:10.535Z,58.30
2019-04-26T10:29:21.698Z,58.20
2019-04-26T10:31:28.873Z,58.20
2019-04-26T10:33:37.893Z,57.80
2019-04-26T10:35:46.309Z,57.90
2019-04-26T10:37:54.845Z,58.20
2019-04-26T10:40:05.393Z,58.10
2019-04-26T10:42:16.821Z,58.10
2019-04-26T10:44:27.596Z,58.10
2019-04-26T10:46:37.958Z,57.90
2019-04-26T10:48:49.880Z,57.80
2019-04-26T10:50:56.011Z,57.80
2019-04-26T10:53:08.128Z,57.80
2019-04-26T10:55:23.390Z,58.00
2019-04-26T10:57:41.781Z,57.90
2019-04-26T10:59:48.349Z,57.70
2019-04-26T11:01:53.300Z,57.70
2019-04-26T11:03:58.059Z,58.00
2019-04-26T11:06:02.797Z,58.00
2019-04-26T11:08:07.567Z,57.90
2019-04-26T11:10:12.257Z,57.80
2019-04-26T11:12:17.083Z,57.70
2019-04-26T11:14:22.637Z,57.60
2019-04-26T11:16:28.384Z,57.70
2019-04-26T11:18:33.178Z,57.40
2019-04-26T11:20:41.369Z,56.80
2019-04-26T11:22:44.726Z,56.50
2019-04-26T11:24:50.072Z,56.30
2019-04-26T11:26:56.013Z,56.50
2019-04-26T11:29:00.744Z,56.40
2019-04-26T11:31:05.529Z,56.60
2019-04-26T11:35:16.661Z,56.60
2019-04-26T11:37:21.436Z,56.30
2019-04-26T11:39:28.130Z,56.60
2019-04-26T11:40:14.063Z,56.60
2019-04-26T11:41:34.016Z,56.50
2019-04-26T11:43:38.928Z,56.50
2019-04-26T11:45:45.434Z,55.90
2019-04-26T11:47:56.369Z,55.90
2019-04-26T11:49:56.508Z,55.60
2019-04-26T11:52:02.908Z,55.50
2019-04-26T11:54:08.727Z,55.20
2019-04-26T11:56:13.501Z,55.40
2019-04-26T11:58:22.553Z,55.60
2019-04-26T12:00:41.437Z,55.30
2019-04-26T12:02:50.608Z,55.40
2019-04-26T12:04:55.123Z,55.70
2019-04-26T12:07:04.335Z,55.50
2019-04-26T12:09:26.021Z,55.10
2019-04-26T12:12:03.676Z,55.10
2019-04-26T12:13:59.319Z,55.30
2019-04-26T12:16:03.032Z,55.30
2019-04-26T12:18:09.834Z,55.80
2019-04-26T12:20:15.901Z,54.40
2019-04-26T12:22:20.610Z,54.70
2019-04-26T12:24:29.446Z,54.40
2019-04-26T12:26:42.305Z,54.80
2019-04-26T12:28:39.901Z,54.60
2019-04-26T12:30:44.609Z,54.60
2019-04-26T12:32:50.139Z,54.40
2019-04-26T12:34:56.599Z,54.50
2019-04-26T12:37:01.353Z,54.30
2019-04-26T12:39:09.689Z,53.90
2019-04-26T12:41:17.244Z,53.40
2019-04-26T12:43:24.608Z,53.80
2019-04-26T12:45:47.433Z,53.80
2019-04-26T12:47:55.551Z,53.70
2019-04-26T12:50:00.515Z,53.50
2019-04-26T12:52:05.287Z,53.60
2019-04-26T12:54:10.029Z,53.40
2019-04-26T12:56:14.743Z,53.30
2019-04-26T12:58:19.518Z,53.20
2019-04-26T13:00:25.873Z,53.30
2019-04-26T13:02:30.581Z,53.20
2019-04-26T13:04:36.209Z,53.00
2019-04-26T13:06:58.322Z,53.30
2019-04-26T13:09:03.375Z,52.90
2019-04-26T13:11:27.361Z,52.80
2019-04-26T13:13:39.829Z,53.10
2019-04-26T13:16:05.495Z,53.60
2019-04-26T13:18:11.181Z,53.10
2019-04-26T13:20:17.913Z,53.30
2019-04-26T13:22:22.699Z,53.10
2019-04-26T13:24:27.493Z,52.70
2019-04-26T13:26:34.884Z,52.20
2019-04-26T13:28:39.239Z,52.40
2019-04-26T13:30:44.931Z,52.40
2019-04-26T13:32:53.516Z,52.20
2019-04-26T13:34:56.256Z,52.30
2019-04-26T13:37:03.041Z,52.40
2019-04-26T13:39:09.165Z,52.20
2019-04-26T13:41:14.441Z,51.70
2019-04-26T13:43:22.632Z,51.90
2019-04-26T13:45:44.441Z,51.90
2019-04-26T13:48:07.297Z,51.50
2019-04-26T13:50:13.663Z,51.40
2019-04-26T13:52:18.469Z,51.30
2019-04-26T13:54:23.307Z,51.00
2019-04-26T13:56:28.042Z,51.80
2019-04-26T13:58:33.079Z,51.80
2019-04-26T14:00:39.789Z,52.00
2019-04-26T14:02:44.498Z,52.00
2019-04-26T14:04:49.195Z,51.90
2019-04-26T14:06:53.954Z,52.10
2019-04-26T14:09:02.745Z,52.20
2019-04-26T14:11:06.977Z,52.00
2019-04-26T14:13:11.700Z,52.10
2019-04-26T14:15:16.550Z,51.60
2019-04-26T14:17:21.315Z,51.90
2019-04-26T14:19:26.018Z,51.70
2019-04-26T14:21:33.203Z,51.90
2019-04-26T14:23:45.311Z,51.60
2019-04-26T14:25:55.514Z,51.90
2019-04-26T14:27:59.460Z,51.70
2019-04-26T14:30:06.752Z,51.80
2019-04-26T14:32:12.933Z,51.80
2019-04-26T14:34:17.701Z,51.70
2019-04-26T14:36:26.475Z,51.90
2019-04-26T14:38:35.641Z,51.90
2019-04-26T14:40:35.390Z,51.80
2019-04-26T14:42:45.859Z,51.30
2019-04-26T14:44:49.550Z,51.60
2019-04-26T14:46:53.384Z,52.10
2019-04-26T14:49:02.115Z,51.80
2019-04-26T14:51:08.121Z,51.90
2019-04-26T14:53:13.296Z,51.60
2019-04-26T14:55:21.233Z,51.30
2019-04-26T14:57:31.005Z,51.50
2019-04-26T14:59:46.911Z,51.20
2019-04-26T15:02:02.659Z,50.80
2019-04-26T15:04:28.137Z,50.80
2019-04-26T15:06:34.340Z,51.00
2019-04-26T15:08:40.557Z,50.90
2019-04-26T15:10:48.837Z,50.70
2019-04-26T15:12:58.346Z,51.20
2019-04-26T15:14:58.657Z,51.60
2019-04-26T15:17:03.462Z,50.90
2019-04-26T15:19:09.852Z,51.00
2019-04-26T15:21:14.650Z,51.10
2019-04-26T15:23:23.115Z,50.20
2019-04-26T15:25:25.780Z,50.20
2019-04-26T15:27:32.184Z,50.40
2019-04-26T15:29:36.945Z,50.20
2019-04-26T15:31:42.482Z,50.90
2019-04-26T15:33:48.897Z,50.30
2019-04-26T15:35:53.730Z,49.90
2019-04-26T15:38:01.496Z,49.60
2019-04-26T15:40:10.258Z,49.60
2019-04-26T15:42:23.769Z,49.70
2019-04-26T15:44:39.902Z,49.70
2019-04-26T15:46:48.660Z,48.90
2019-04-26T15:48:56.596Z,49.10
2019-04-26T15:51:02.746Z,49.00
2019-04-26T15:53:12.728Z,49.40
2019-04-26T15:55:15.066Z,49.60
2019-04-26T15:57:19.893Z,48.80
2019-04-26T15:59:25.411Z,48.90
2019-04-26T16:01:30.269Z,48.90
2019-04-26T16:03:36.835Z,48.70
2019-04-26T16:05:43.334Z,48.80
2019-04-26T16:07:48.252Z,49.10
2019-04-26T16:09:55.973Z,49.20
2019-04-26T16:11:59.621Z,48.80
2019-04-26T16:14:04.428Z,49.50
2019-04-26T16:16:09.136Z,49.60
2019-04-26T16:18:16.989Z,49.60
2019-04-26T16:20:22.042Z,49.20
2019-04-26T16:22:30.235Z,49.30
2019-04-26T16:24:34.628Z,49.20
2019-04-26T16:26:47.687Z,48.80
2019-04-26T16:28:49.195Z,48.80
2019-04-26T16:31:14.188Z,47.90
2019-04-26T16:33:20.628Z,48.30
2019-04-26T16:37:35.136Z,47.70
2019-04-26T16:39:40.209Z,47.40
2019-04-26T16:41:45.044Z,47.20
2019-04-26T16:43:53.284Z,47.10
2019-04-26T16:45:56.326Z,47.30
2019-04-26T16:48:01.876Z,48.20
2019-04-26T16:50:07.165Z,48.80
2019-04-26T16:52:14.019Z,48.40
2019-04-26T16:54:21.941Z,48.70
2019-04-26T16:56:26.499Z,48.40
2019-04-26T16:58:38.132Z,48.40
2019-04-26T17:00:31.411Z,47.60
2019-04-26T17:00:50.076Z,47.80
2019-04-26T17:02:44.985Z,47.80
2019-04-26T17:04:49.747Z,48.00
2019-04-26T17:06:54.572Z,47.60
2019-04-26T17:09:01.591Z,47.10
2019-04-26T17:11:07.323Z,47.70
2019-04-26T17:13:13.209Z,47.30
2019-04-26T17:15:37.541Z,47.40
2019-04-26T17:17:45.198Z,47.40
2019-04-26T17:19:48.731Z,47.50
2019-04-26T17:21:56.502Z,47.40
2019-04-26T17:24:19.691Z,48.10
2019-04-26T17:26:29.237Z,47.80
2019-04-26T17:28:35.345Z,47.70
2019-04-26T17:30:42.452Z,47.90
2019-04-26T17:32:47.511Z,47.60
2019-04-26T17:34:54.554Z,47.00
2019-04-26T17:37:00.125Z,46.80
2019-04-26T17:39:11.895Z,47.00
2019-04-26T17:41:14.904Z,46.80
2019-04-26T17:43:21.140Z,46.80
2019-04-26T17:45:26.087Z,47.10
2019-04-26T17:47:33.006Z,47.10
2019-04-26T17:49:41.697Z,47.00
2019-04-26T17:51:44.712Z,47.10
2019-04-26T17:53:58.759Z,47.10
2019-04-26T17:55:55.911Z,46.50
2019-04-26T17:58:12.112Z,46.80
2019-04-26T18:00:15.386Z,46.70
2019-04-26T18:02:38.669Z,46.20
2019-04-26T18:04:34.407Z,46.20
2019-04-26T18:06:31.299Z,46.40
2019-04-26T18:08:45.230Z,46.30
2019-04-26T18:10:42.895Z,46.80
2019-04-26T18:12:50.796Z,46.80
2019-04-26T18:14:55.735Z,46.90
2019-04-26T18:17:14.211Z,46.80
2019-04-26T18:19:39.079Z,46.60
2019-04-26T18:21:49.642Z,46.60
2019-04-26T18:23:57.224Z,47.00
2019-04-26T18:26:03.252Z,47.10
2019-04-26T18:28:08.841Z,47.00
2019-04-26T18:30:14.636Z,47.10
2019-04-26T18:32:19.405Z,46.40
2019-04-26T18:34:24.214Z,46.60
2019-04-26T18:36:31.977Z,46.80
2019-04-26T18:38:37.891Z,47.10
2019-04-26T18:40:59.863Z,47.10
2019-04-26T18:42:49.619Z,47.10
2019-04-26T18:44:56.017Z,47.10
2019-04-26T18:47:14.733Z,47.50
2019-04-26T18:49:22.609Z,47.60
2019-04-26T18:51:24.492Z,47.70
2019-04-26T18:53:39.613Z,47.90
2019-04-26T18:55:44.891Z,47.30
2019-04-26T18:57:54.766Z,47.30
2019-04-26T18:59:55.971Z,47.60
2019-04-26T19:02:01.363Z,47.60
2019-04-26T19:04:12.539Z,47.70
2019-04-26T19:06:26.567Z,47.70
2019-04-26T19:08:20.901Z,47.80
2019-04-26T19:10:28.949Z,48.00
2019-04-26T19:12:32.642Z,48.00
2019-04-26T19:15:03.069Z,48.20
2019-04-26T19:17:03.527Z,48.40
2019-04-26T19:19:22.764Z,48.40
2019-04-26T19:21:40.667Z,48.50
2019-04-26T19:23:45.554Z,48.50
2019-04-26T19:25:52.087Z,48.50
2019-04-26T19:27:58.671Z,48.50
2019-04-26T19:30:09.171Z,48.60
2019-04-26T19:32:09.876Z,48.70
2019-04-26T19:34:14.643Z,48.70
2019-04-26T19:36:23.958Z,48.00
2019-04-26T19:38:26.892Z,47.70
2019-04-26T19:40:31.649Z,47.10
2019-04-26T19:42:36.502Z,47.30
2019-04-26T19:44:42.083Z,47.20
2019-04-26T19:46:48.620Z,47.10
2019-04-26T19:49:00.884Z,47.00
2019-04-26T19:51:07.244Z,47.10
2019-04-26T19:53:28.738Z,47.20
2019-04-26T19:55:41.785Z,47.10
2019-04-26T19:57:54.774Z,47.10
2019-04-26T20:00:03.657Z,46.80
2019-04-26T20:02:06.129Z,46.80
2019-04-26T20:04:11.296Z,46.70
2019-04-26T20:06:18.861Z,46.80
2019-04-26T20:08:24.017Z,46.80
2019-04-26T20:10:28.823Z,46.30
2019-04-26T20:12:37.922Z,46.60
2019-04-26T20:14:49.131Z,46.40
2019-04-26T20:16:46.420Z,46.50
2019-04-26T20:18:52.360Z,46.50
2019-04-26T20:20:57.286Z,46.30
2019-04-26T20:23:05.778Z,46.30
2019-04-26T20:25:08.523Z,46.20
2019-04-26T20:27:14.013Z,46.20
2019-04-26T20:29:19.660Z,45.90
2019-04-26T20:31:44.955Z,46.20
2019-04-26T20:33:44.534Z,46.40
2019-04-26T20:35:49.254Z,46.40
2019-04-26T20:37:56.275Z,46.20
2019-04-26T20:40:16.235Z,46.50
2019-04-26T20:42:07.716Z,46.60
2019-04-26T20:44:12.801Z,46.70
2019-04-26T20:46:17.807Z,46.90
2019-04-26T20:48:25.660Z,47.10
2019-04-26T20:50:33.439Z,47.20
2019-04-26T20:52:35.389Z,47.00
2019-04-26T20:54:41.604Z,47.00
2019-04-26T20:56:52.654Z,46.90
2019-04-26T20:58:52.853Z,46.90
2019-04-26T21:00:57.604Z,46.90
2019-04-26T21:03:06.039Z,47.00
2019-04-26T21:05:11.203Z,47.00
2019-04-26T21:07:15.302Z,46.70
2019-04-26T21:09:21.882Z,47.00
2019-04-26T21:11:30.416Z,47.10
2019-04-26T21:13:33.114Z,47.00
2019-04-26T21:15:37.909Z,46.90
2019-04-26T21:17:42.593Z,46.70
2019-04-26T21:19:49.919Z,46.80
2019-04-26T21:21:53.697Z,46.60
2019-04-26T21:24:01.473Z,47.40
2019-04-26T21:26:16.571Z,46.90
2019-04-26T21:28:42.597Z,47.10
2019-04-26T21:31:07.509Z,47.00
2019-04-26T21:33:17.623Z,47.00
2019-04-26T21:35:25.070Z,46.90
2019-04-26T21:37:32.097Z,47.00
2019-04-26T21:39:39.465Z,47.10
2019-04-26T21:41:48.315Z,47.10
2019-04-26T21:43:53.325Z,47.30
2019-04-26T21:46:07.685Z,47.00
2019-04-26T21:48:06.880Z,47.10
2019-04-26T21:50:11.045Z,47.30
2019-04-26T21:52:15.739Z,47.10
2019-04-26T21:54:20.478Z,47.10
2019-04-26T21:56:25.254Z,47.20
2019-04-26T21:58:29.942Z,47.30
2019-04-26T22:00:36.388Z,47.50
2019-04-26T22:02:43.067Z,47.60
2019-04-26T22:04:47.807Z,47.40
2019-04-26T22:06:53.478Z,47.50
2019-04-26T22:09:06.755Z,47.50
2019-04-26T22:11:19.520Z,47.40
2019-04-26T22:13:24.575Z,47.50
2019-04-26T22:15:44.061Z,47.40
2019-04-26T22:17:54.568Z,47.50
2019-04-26T22:20:12.970Z,47.50
2019-04-26T22:22:33.521Z,47.60
2019-04-26T22:24:39.943Z,47.70
2019-04-26T22:26:48.100Z,47.60
2019-04-26T22:28:51.196Z,47.50
2019-04-26T22:30:59.353Z,47.50
2019-04-26T22:33:03.055Z,47.60
2019-04-26T22:35:07.893Z,47.70
2019-04-26T22:37:12.970Z,47.70
2019-04-26T22:39:19.205Z,47.80
2019-04-26T22:41:24.478Z,47.80
2019-04-26T22:43:39.623Z,47.80
2019-04-26T22:45:48.832Z,47.90
2019-04-26T22:47:57.994Z,47.90
2019-04-26T22:50:03.581Z,47.90
2019-04-26T22:52:11.282Z,47.80
2019-04-26T22:54:14.879Z,47.90
2019-04-26T22:56:19.656Z,47.80
2019-04-26T22:58:25.486Z,47.90
2019-04-26T23:00:33.086Z,47.90
2019-04-26T23:02:37.918Z,47.90
2019-04-26T23:04:42.624Z,47.90
2019-04-26T23:06:48.218Z,47.90
2019-04-26T23:08:54.027Z,48.00
2019-04-26T23:11:02.464Z,47.80
2019-04-26T23:13:24.014Z,47.80
2019-04-26T23:15:33.291Z,47.80
2019-04-26T23:17:56.501Z,47.80
2019-04-26T23:20:03.201Z,48.00
2019-04-26T23:22:08.237Z,47.80
2019-04-26T23:24:15.892Z,47.80
2019-04-26T23:26:19.712Z,48.30
2019-04-26T23:28:27.645Z,47.70
2019-04-26T23:30:31.660Z,47.90
2019-04-26T23:32:37.435Z,48.00
2019-04-26T23:34:42.195Z,48.60
2019-04-26T23:36:49.083Z,48.20
2019-04-26T23:38:54.444Z,48.30
2019-04-26T23:41:01.118Z,48.20
2019-04-26T23:43:05.614Z,48.30
2019-04-26T23:45:12.367Z,48.20
2019-04-26T23:47:22.520Z,48.20
2019-04-26T23:49:25.153Z,48.20
2019-04-26T23:51:29.622Z,48.10
2019-04-26T23:53:35.949Z,48.20
2019-04-26T23:55:44.099Z,48.20
2019-04-26T23:57:47.182Z,48.20
2019-04-26T23:59:56.439Z,48.20
